createdAt,value
2018-08-22T00:00:42.170Z,41.60
2018-08-22T00:03:11.614Z,38.43
2018-08-22T00:05:40.047Z,40.50
2018-08-22T00:08:08.579Z,38.30
2018-08-22T00:10:38.044Z,43.27
2018-08-22T00:13:06.544Z,43.30
2018-08-22T00:15:34.911Z,40.37
2018-08-22T00:18:03.465Z,39.80
2018-08-22T00:20:31.926Z,40.07
2018-08-22T00:23:00.361Z,39.20
2018-08-22T00:25:29.275Z,38.03
2018-08-22T00:27:57.870Z,37.00
2018-08-22T00:30:26.276Z,38.37
2018-08-22T00:32:54.709Z,37.83
2018-08-22T00:35:23.145Z,43.90
2018-08-22T00:37:51.827Z,46.13
2018-08-22T00:40:20.271Z,47.70
2018-08-22T00:42:48.778Z,43.83
2018-08-22T00:45:17.546Z,41.60
2018-08-22T00:47:46.027Z,40.93
2018-08-22T00:50:14.877Z,42.50
2018-08-22T00:52:44.410Z,41.13
2018-08-22T00:55:12.872Z,43.17
2018-08-22T00:57:41.412Z,40.77
2018-08-22T01:00:10.052Z,41.20
2018-08-22T01:02:38.639Z,44.87
2018-08-22T01:05:07.713Z,47.30
2018-08-22T01:07:36.190Z,42.63
2018-08-22T01:10:05.438Z,43.57
2018-08-22T01:12:34.351Z,42.70
2018-08-22T01:15:09.709Z,44.03
2018-08-22T01:17:38.359Z,46.13
2018-08-22T01:20:07.525Z,40.63
2018-08-22T01:22:36.230Z,40.37
2018-08-22T01:25:04.812Z,38.33
2018-08-22T01:27:33.514Z,41.30
2018-08-22T01:30:02.136Z,37.83
2018-08-22T01:32:31.589Z,40.57
2018-08-22T01:35:00.645Z,39.20
2018-08-22T01:37:29.195Z,44.00
2018-08-22T01:39:57.655Z,38.47
2018-08-22T01:42:26.101Z,41.23
2018-08-22T01:44:54.863Z,40.40
2018-08-22T01:47:23.338Z,38.93
2018-08-22T01:49:51.794Z,39.87
2018-08-22T01:52:20.180Z,36.93
2018-08-22T01:54:49.060Z,36.70
2018-08-22T01:57:17.726Z,37.73
2018-08-22T01:59:46.493Z,38.40
2018-08-22T02:02:15.080Z,44.50
2018-08-22T02:04:43.774Z,43.07
2018-08-22T02:07:12.297Z,36.33
2018-08-22T02:09:40.950Z,35.23
2018-08-22T02:12:09.414Z,35.93
2018-08-22T02:14:38.082Z,34.10
2018-08-22T02:17:06.601Z,36.30
2018-08-22T02:19:35.418Z,32.90
2018-08-22T02:22:03.777Z,34.70
2018-08-22T02:24:32.273Z,34.17
2018-08-22T02:27:00.490Z,36.00
2018-08-22T02:29:29.183Z,31.67
2018-08-22T02:32:04.046Z,30.73
2018-08-22T02:34:32.480Z,32.10
2018-08-22T02:37:00.879Z,32.47
2018-08-22T02:39:29.493Z,32.60
2018-08-22T02:41:58.016Z,31.30
2018-08-22T02:44:26.588Z,30.00
2018-08-22T02:46:55.278Z,30.13
2018-08-22T02:49:23.652Z,28.80
2018-08-22T02:51:52.135Z,27.50
2018-08-22T02:54:20.979Z,30.43
2018-08-22T02:56:49.437Z,30.30
2018-08-22T02:59:18.039Z,32.27
2018-08-22T03:01:46.447Z,30.90
2018-08-22T03:04:14.862Z,31.67
2018-08-22T03:06:43.616Z,30.57
2018-08-22T03:09:12.040Z,31.93
2018-08-22T03:11:40.851Z,30.73
2018-08-22T03:14:09.332Z,30.23
2018-08-22T03:16:37.812Z,29.57
2018-08-22T03:19:06.159Z,31.73
2018-08-22T03:21:34.574Z,30.43
2018-08-22T03:24:03.296Z,34.80
2018-08-22T03:26:32.057Z,33.77
2018-08-22T03:29:00.617Z,32.90
2018-08-22T03:31:29.076Z,33.37
2018-08-22T03:33:57.917Z,32.53
2018-08-22T03:36:26.314Z,36.23
2018-08-22T03:38:55.191Z,34.80
2018-08-22T03:41:23.734Z,34.37
2018-08-22T03:43:52.269Z,37.37
2018-08-22T03:46:20.704Z,37.40
2018-08-22T03:48:49.412Z,33.80
2018-08-22T03:51:17.988Z,34.97
2018-08-22T03:53:46.464Z,36.63
2018-08-22T03:56:14.964Z,34.10
2018-08-22T03:58:43.435Z,30.47
2018-08-22T04:01:12.120Z,29.80
2018-08-22T04:03:40.630Z,33.43
2018-08-22T04:06:09.118Z,33.20
2018-08-22T04:08:37.777Z,30.67
2018-08-22T04:11:06.295Z,30.70
2018-08-22T04:13:34.886Z,30.00
2018-08-22T04:16:03.681Z,30.70
2018-08-22T04:18:32.389Z,28.37
2018-08-22T04:21:00.929Z,30.17
2018-08-22T04:23:29.467Z,26.50
2018-08-22T04:25:57.900Z,27.70
2018-08-22T04:28:26.904Z,28.27
2018-08-22T04:30:55.043Z,27.73
2018-08-22T04:33:23.837Z,28.23
2018-08-22T04:35:52.654Z,27.73
2018-08-22T04:38:21.171Z,26.60
2018-08-22T04:40:49.991Z,27.43
2018-08-22T04:43:18.743Z,26.57
2018-08-22T04:45:47.337Z,29.50
2018-08-22T04:48:16.174Z,25.20
2018-08-22T04:50:44.568Z,24.80
2018-08-22T04:53:13.491Z,24.23
2018-08-22T04:55:41.979Z,25.53
2018-08-22T04:58:11.235Z,26.20
2018-08-22T05:00:39.715Z,24.87
2018-08-22T05:03:08.225Z,28.93
2018-08-22T05:05:36.442Z,26.23
2018-08-22T05:08:05.663Z,28.90
2018-08-22T05:10:34.291Z,25.50
2018-08-22T05:13:03.014Z,27.47
2018-08-22T05:15:32.196Z,26.30
2018-08-22T05:18:00.878Z,27.13
2018-08-22T05:20:30.243Z,26.97
2018-08-22T05:22:58.931Z,24.03
2018-08-22T05:25:27.576Z,29.93
2018-08-22T05:27:57.263Z,28.77
2018-08-22T05:30:25.853Z,23.93
2018-08-22T05:32:54.405Z,25.73
2018-08-22T05:35:23.481Z,27.07
2018-08-22T05:37:52.202Z,26.43
2018-08-22T05:40:22.258Z,26.63
2018-08-22T05:42:50.958Z,24.23
2018-08-22T05:45:19.550Z,24.03
2018-08-22T05:47:48.283Z,28.97
2018-08-22T05:50:17.309Z,25.80
2018-08-22T05:52:50.701Z,27.40
2018-08-22T05:55:22.356Z,27.97
2018-08-22T05:57:50.884Z,27.37
2018-08-22T06:00:19.672Z,24.83
2018-08-22T06:02:48.237Z,25.37
2018-08-22T06:05:17.303Z,25.60
2018-08-22T06:07:45.800Z,22.13
2018-08-22T06:10:15.092Z,25.40
2018-08-22T06:12:44.679Z,27.30
2018-08-22T06:15:14.075Z,25.77
2018-08-22T06:17:42.698Z,24.40
2018-08-22T06:20:11.568Z,23.83
2018-08-22T06:22:41.287Z,24.73
2018-08-22T06:25:11.221Z,26.57
2018-08-22T06:27:40.417Z,27.30
2018-08-22T06:30:11.169Z,23.83
2018-08-22T06:32:44.271Z,20.30
2018-08-22T06:35:13.898Z,22.03
2018-08-22T06:37:42.537Z,20.57
2018-08-22T06:40:11.771Z,19.03
2018-08-22T06:42:40.410Z,14.33
2018-08-22T06:45:14.119Z,11.30
2018-08-22T06:47:43.691Z,12.30
2018-08-22T06:50:13.589Z,11.40
2018-08-22T06:52:42.719Z,11.40
2018-08-22T06:55:11.516Z,11.60
2018-08-22T06:57:41.155Z,10.97
2018-08-22T07:00:11.954Z,14.17
2018-08-22T07:02:44.633Z,13.43
2018-08-22T07:05:14.064Z,13.43
2018-08-22T07:07:42.966Z,15.17
2018-08-22T07:10:11.845Z,16.97
2018-08-22T07:12:40.634Z,17.93
2018-08-22T07:15:09.212Z,17.73
2018-08-22T07:17:41.183Z,18.70
2018-08-22T07:20:12.843Z,19.70
2018-08-22T07:22:41.536Z,20.20
2018-08-22T07:25:10.138Z,19.80
2018-08-22T07:27:38.838Z,18.03
2018-08-22T07:30:08.855Z,18.70
2018-08-22T07:32:37.539Z,23.30
2018-08-22T07:35:06.412Z,26.87
2018-08-22T07:37:35.795Z,31.50
2018-08-22T07:40:05.099Z,28.40
2018-08-22T07:42:34.531Z,25.90
2018-08-22T07:45:04.391Z,25.37
2018-08-22T07:47:33.064Z,25.30
2018-08-22T07:50:02.183Z,25.33
2018-08-22T07:52:30.869Z,25.23
2018-08-22T07:54:59.660Z,33.33
2018-08-22T07:57:29.093Z,31.50
2018-08-22T07:59:57.656Z,36.50
2018-08-22T08:02:26.435Z,36.10
2018-08-22T08:04:55.019Z,37.17
2018-08-22T08:07:24.431Z,34.80
2018-08-22T08:09:53.525Z,35.40
2018-08-22T08:12:26.789Z,34.83
2018-08-22T08:15:02.005Z,35.27
2018-08-22T08:17:31.246Z,34.00
2018-08-22T08:20:00.902Z,31.50
2018-08-22T08:22:29.627Z,31.53
2018-08-22T08:24:58.351Z,32.60
2018-08-22T08:27:27.667Z,30.97
2018-08-22T08:29:56.429Z,31.93
2018-08-22T08:32:25.532Z,30.70
2018-08-22T08:34:55.068Z,30.03
2018-08-22T08:37:23.824Z,28.67
2018-08-22T08:39:52.912Z,27.00
2018-08-22T08:42:21.891Z,28.30
2018-08-22T08:44:51.124Z,28.07
2018-08-22T08:47:20.772Z,28.93
2018-08-22T08:49:49.354Z,26.43
2018-08-22T08:52:18.113Z,27.83
2018-08-22T08:54:48.108Z,25.50
2018-08-22T08:57:17.868Z,27.50
2018-08-22T08:59:47.187Z,27.33
2018-08-22T09:02:18.347Z,27.07
2018-08-22T09:04:47.162Z,30.90
2018-08-22T09:07:16.775Z,28.43
2018-08-22T09:09:46.538Z,27.83
2018-08-22T09:12:15.285Z,26.10
2018-08-22T09:14:44.587Z,27.87
2018-08-22T09:17:13.287Z,28.47
2018-08-22T09:19:42.303Z,26.63
2018-08-22T09:22:11.364Z,25.70
2018-08-22T09:24:42.818Z,23.90
2018-08-22T09:27:11.157Z,23.03
2018-08-22T09:29:39.832Z,20.70
2018-08-22T09:32:08.435Z,20.07
2018-08-22T09:34:37.019Z,21.80
2018-08-22T09:37:05.609Z,20.80
2018-08-22T09:39:34.977Z,20.20
2018-08-22T09:42:04.843Z,20.53
2018-08-22T09:44:33.520Z,20.03
2018-08-22T09:47:02.622Z,20.27
2018-08-22T09:49:32.056Z,19.77
2018-08-22T09:52:01.450Z,20.37
2018-08-22T09:54:30.083Z,18.07
2018-08-22T09:56:58.903Z,19.87
2018-08-22T09:59:27.757Z,17.17
2018-08-22T10:01:57.551Z,18.13
2018-08-22T10:04:26.841Z,15.90
2018-08-22T10:06:55.817Z,17.50
2018-08-22T10:09:24.755Z,16.37
2018-08-22T10:11:55.958Z,16.20
2018-08-22T10:14:25.825Z,14.10
2018-08-22T10:16:54.725Z,13.47
2018-08-22T10:19:24.759Z,12.40
2018-08-22T10:21:54.019Z,11.90
2018-08-22T10:24:23.535Z,11.73
2018-08-22T10:26:52.720Z,10.30
2018-08-22T10:29:21.387Z,11.47
2018-08-22T10:31:50.266Z,12.50
2018-08-22T10:34:19.147Z,12.00
2018-08-22T10:36:48.482Z,11.20
2018-08-22T10:39:17.186Z,10.90
2018-08-22T10:41:46.495Z,11.10
2018-08-22T10:44:15.747Z,10.90
2018-08-22T10:46:44.383Z,10.03
2018-08-22T10:49:13.480Z,11.60
2018-08-22T10:51:43.445Z,14.47
2018-08-22T10:54:13.575Z,14.67
2018-08-22T10:56:43.027Z,16.00
2018-08-22T10:59:11.709Z,15.53
2018-08-22T11:01:40.359Z,15.60
2018-08-22T11:04:09.736Z,15.70
2018-08-22T11:06:41.560Z,15.60
2018-08-22T11:09:11.406Z,15.17
2018-08-22T11:11:41.462Z,15.67
2018-08-22T11:14:10.466Z,14.60
2018-08-22T11:16:39.214Z,13.83
2018-08-22T11:19:07.944Z,12.30
2018-08-22T11:21:54.910Z,15.27
2018-08-22T11:24:41.130Z,14.40
2018-08-22T11:27:27.433Z,14.50
2018-08-22T11:30:13.091Z,12.93
2018-08-22T11:32:58.999Z,13.07
2018-08-22T11:35:26.005Z,13.00
2018-08-22T11:37:55.429Z,13.10
2018-08-22T11:40:24.685Z,13.10
2018-08-22T11:42:53.406Z,11.73
2018-08-22T11:45:22.211Z,10.80
2018-08-22T11:47:51.176Z,12.30
2018-08-22T11:50:21.076Z,11.70
2018-08-22T11:52:51.176Z,12.03
2018-08-22T11:55:19.784Z,11.20
2018-08-22T11:57:49.651Z,9.97
2018-08-22T12:00:19.029Z,11.40
2018-08-22T12:02:47.697Z,10.67
2018-08-22T12:05:17.231Z,11.80
2018-08-22T12:07:46.655Z,12.23
2018-08-22T12:10:16.059Z,12.30
2018-08-22T12:12:45.573Z,8.50
2018-08-22T12:15:14.256Z,10.73
2018-08-22T12:17:42.883Z,8.70
2018-08-22T12:20:11.900Z,10.00
2018-08-22T12:22:41.421Z,9.80
2018-08-22T12:25:10.726Z,10.87
2018-08-22T12:27:40.685Z,11.07
2018-08-22T12:30:12.438Z,9.00
2018-08-22T12:32:41.501Z,8.80
2018-08-22T12:35:11.230Z,10.07
2018-08-22T12:37:41.982Z,9.97
2018-08-22T12:40:11.553Z,8.90
2018-08-22T12:42:41.368Z,11.60
2018-08-22T12:45:11.092Z,10.00
2018-08-22T12:47:41.117Z,10.93
2018-08-22T12:50:09.794Z,9.50
2018-08-22T12:52:39.141Z,9.70
2018-08-22T12:55:13.293Z,9.57
2018-08-22T12:57:43.476Z,9.30
2018-08-22T13:00:15.082Z,11.90
2018-08-22T13:02:48.965Z,10.87
2018-08-22T13:05:20.166Z,12.90
2018-08-22T13:07:50.056Z,9.03
2018-08-22T13:10:18.960Z,12.73
2018-08-22T13:12:47.822Z,11.47
2018-08-22T13:15:19.071Z,12.53
2018-08-22T13:17:47.847Z,11.47
2018-08-22T13:20:16.402Z,11.20
2018-08-22T13:22:46.992Z,10.73
2018-08-22T13:25:16.650Z,10.03
2018-08-22T13:27:46.390Z,10.90
2018-08-22T13:30:15.061Z,12.10
2018-08-22T13:32:48.791Z,13.63
2018-08-22T13:35:18.239Z,13.93
2018-08-22T13:37:47.575Z,12.80
2018-08-22T13:40:17.134Z,13.07
2018-08-22T13:42:45.486Z,12.30
2018-08-22T13:45:14.806Z,13.20
2018-08-22T13:47:43.503Z,13.10
2018-08-22T13:50:13.292Z,13.17
2018-08-22T13:52:42.919Z,13.30
2018-08-22T13:55:12.453Z,12.73
2018-08-22T13:57:42.372Z,14.47
2018-08-22T14:00:11.218Z,11.60
2018-08-22T14:02:40.621Z,11.33
2018-08-22T14:05:10.231Z,13.33
2018-08-22T14:07:38.967Z,14.30
2018-08-22T14:10:09.969Z,13.47
2018-08-22T14:12:39.585Z,15.00
2018-08-22T14:15:09.155Z,15.30
2018-08-22T14:17:40.491Z,13.67
2018-08-22T14:20:11.203Z,15.83
2018-08-22T14:22:39.876Z,14.43
2018-08-22T14:25:12.444Z,15.00
2018-08-22T14:27:41.322Z,14.53
2018-08-22T14:30:10.266Z,16.80
2018-08-22T14:32:38.994Z,15.33
2018-08-22T14:35:08.887Z,18.07
2018-08-22T14:37:40.912Z,16.97
2018-08-22T14:40:10.721Z,16.30
2018-08-22T14:42:39.821Z,16.73
2018-08-22T14:45:10.818Z,18.30
2018-08-22T14:47:41.048Z,15.50
2018-08-22T14:50:10.784Z,15.80
2018-08-22T14:52:40.581Z,15.30
2018-08-22T14:55:09.750Z,15.13
2018-08-22T14:57:40.482Z,16.43
2018-08-22T15:00:10.781Z,15.20
2018-08-22T15:02:40.088Z,13.57
2018-08-22T15:05:09.805Z,13.17
2018-08-22T15:07:38.975Z,13.57
2018-08-22T15:10:09.032Z,15.20
2018-08-22T15:12:37.795Z,15.43
2018-08-22T15:15:10.894Z,13.13
2018-08-22T15:17:39.942Z,12.37
2018-08-22T15:20:12.019Z,12.23
2018-08-22T15:22:41.643Z,14.47
2018-08-22T15:25:10.942Z,13.50
2018-08-22T15:27:39.561Z,12.00
2018-08-22T15:30:09.750Z,12.70
2018-08-22T15:32:39.009Z,12.50
2018-08-22T15:35:07.701Z,14.97
2018-08-22T15:37:37.375Z,13.20
2018-08-22T15:40:06.731Z,13.47
2018-08-22T15:42:36.749Z,12.27
2018-08-22T15:45:06.259Z,12.33
2018-08-22T15:47:35.094Z,12.17
2018-08-22T15:50:04.276Z,12.63
2018-08-22T15:52:33.870Z,13.20
2018-08-22T15:55:15.774Z,11.50
2018-08-22T15:57:57.880Z,12.10
2018-08-22T16:00:34.185Z,13.37
2018-08-22T16:03:04.615Z,14.20
2018-08-22T16:05:34.509Z,11.63
2018-08-22T16:08:03.748Z,14.90
2018-08-22T16:10:32.451Z,13.47
2018-08-22T16:13:01.727Z,13.33
2018-08-22T16:15:41.258Z,12.93
2018-08-22T16:18:09.961Z,12.60
2018-08-22T16:20:49.674Z,13.20
2018-08-22T16:23:19.413Z,15.90
2018-08-22T16:25:50.873Z,14.07
2018-08-22T16:28:20.041Z,18.13
2018-08-22T16:30:57.041Z,16.80
2018-08-22T16:33:21.541Z,18.90
2018-08-22T16:35:50.437Z,20.60
2018-08-22T16:38:19.428Z,22.33
2018-08-22T16:40:52.873Z,21.20
2018-08-22T16:43:41.129Z,22.10
2018-08-22T16:46:13.663Z,20.80
2018-08-22T16:48:48.416Z,21.10
2018-08-22T16:51:18.563Z,21.40
2018-08-22T16:54:02.498Z,21.87
2018-08-22T16:56:33.121Z,20.53
2018-08-22T16:59:11.098Z,19.90
2018-08-22T17:01:45.763Z,20.70
2018-08-22T17:04:14.558Z,19.57
2018-08-22T17:06:44.006Z,20.77
2018-08-22T17:09:13.028Z,20.17
2018-08-22T17:11:41.844Z,18.73
2018-08-22T17:14:10.748Z,17.33
2018-08-22T17:16:40.025Z,18.17
2018-08-22T17:19:08.999Z,17.93
2018-08-22T17:21:37.941Z,18.00
2018-08-22T17:24:07.096Z,17.40
2018-08-22T17:26:36.576Z,18.00
2018-08-22T17:29:07.481Z,18.90
2018-08-22T17:31:36.285Z,16.80
2018-08-22T17:34:05.744Z,17.60
2018-08-22T17:36:35.095Z,16.00
2018-08-22T17:39:04.225Z,17.60
2018-08-22T17:41:34.508Z,18.73
2018-08-22T17:44:10.676Z,18.23
2018-08-22T17:46:47.140Z,17.23
2018-08-22T17:49:15.751Z,17.83
2018-08-22T17:52:13.229Z,18.10
2018-08-22T17:54:42.430Z,19.03
2018-08-22T17:57:23.107Z,18.57
2018-08-22T17:59:51.843Z,16.10
2018-08-22T18:02:21.907Z,16.60
2018-08-22T18:05:03.960Z,20.40
2018-08-22T18:07:33.137Z,17.67
2018-08-22T18:10:04.310Z,17.23
2018-08-22T18:12:33.359Z,18.77
2018-08-22T18:15:04.172Z,17.97
2018-08-22T18:17:34.000Z,19.40
2018-08-22T18:20:04.036Z,18.17
2018-08-22T18:22:34.248Z,21.20
2018-08-22T18:25:04.501Z,18.60
2018-08-22T18:27:33.207Z,20.40
2018-08-22T18:30:04.731Z,19.70
2018-08-22T18:32:33.964Z,19.23
2018-08-22T18:35:06.514Z,20.33
2018-08-22T18:37:36.347Z,21.73
2018-08-22T18:40:29.897Z,21.50
2018-08-22T18:43:01.058Z,20.20
2018-08-22T18:45:30.084Z,20.73
2018-08-22T18:48:00.860Z,21.23
2018-08-22T18:50:29.394Z,22.27
2018-08-22T18:53:01.239Z,22.60
2018-08-22T18:55:31.492Z,22.97
2018-08-22T18:58:01.981Z,24.40
2018-08-22T19:00:34.906Z,29.77
2018-08-22T19:03:04.523Z,23.03
2018-08-22T19:05:35.676Z,23.67
2018-08-22T19:08:09.957Z,25.30
2018-08-22T19:13:15.485Z,22.60
2018-08-22T19:15:49.732Z,23.30
2018-08-22T19:18:18.439Z,22.80
2018-08-22T19:20:47.433Z,22.00
2018-08-22T19:23:15.891Z,21.80
2018-08-22T19:25:47.774Z,23.63
2018-08-22T19:28:16.648Z,22.70
2018-08-22T19:30:45.196Z,22.40
2018-08-22T19:33:18.120Z,24.10
2018-08-22T19:35:47.173Z,23.20
2018-08-22T19:38:18.087Z,25.53
2018-08-22T19:40:46.896Z,24.70
2018-08-22T19:43:15.276Z,23.57
2018-08-22T19:45:43.761Z,23.73
2018-08-22T19:48:12.319Z,24.53
2018-08-22T19:50:40.806Z,24.13
2018-08-22T19:53:09.497Z,24.47
2018-08-22T19:55:38.306Z,25.13
2018-08-22T19:58:07.537Z,24.70
2018-08-22T20:00:36.040Z,24.37
2018-08-22T20:03:04.748Z,25.17
2018-08-22T20:05:50.446Z,26.77
2018-08-22T20:08:23.793Z,24.03
2018-08-22T20:10:52.533Z,23.50
2018-08-22T20:13:21.015Z,24.60
2018-08-22T20:15:50.136Z,26.43
2018-08-22T20:18:19.041Z,25.00
2018-08-22T20:20:47.526Z,27.13
2018-08-22T20:23:16.296Z,26.10
2018-08-22T20:25:44.621Z,25.60
2018-08-22T20:28:13.151Z,28.50
2018-08-22T20:30:41.621Z,27.13
2018-08-22T20:33:10.235Z,26.97
2018-08-22T20:35:40.657Z,29.33
2018-08-22T20:38:11.136Z,28.27
2018-08-22T20:40:40.344Z,29.27
2018-08-22T20:43:18.232Z,30.17
2018-08-22T20:45:47.640Z,31.70
2018-08-22T20:48:18.913Z,29.37
2018-08-22T20:50:47.615Z,30.37
2018-08-22T20:53:18.783Z,30.00
2018-08-22T20:55:47.618Z,28.47
2018-08-22T20:58:25.827Z,30.97
2018-08-22T21:00:54.440Z,31.97
2018-08-22T21:03:23.012Z,31.60
2018-08-22T21:05:51.808Z,34.20
2018-08-22T21:08:22.406Z,30.60
2018-08-22T21:10:51.136Z,32.40
2018-08-22T21:13:27.359Z,33.50
2018-08-22T21:15:56.369Z,35.13
2018-08-22T21:18:25.121Z,34.53
2018-08-22T21:20:54.339Z,33.93
2018-08-22T21:23:23.452Z,37.50
2018-08-22T21:25:54.100Z,34.70
2018-08-22T21:28:29.829Z,35.13
2018-08-22T21:30:59.768Z,35.23
2018-08-22T21:33:29.536Z,34.80
2018-08-22T21:35:57.870Z,34.70
2018-08-22T21:38:26.472Z,37.40
2018-08-22T21:40:55.127Z,33.20
2018-08-22T21:43:23.699Z,33.20
2018-08-22T21:45:52.694Z,32.93
2018-08-22T21:48:23.903Z,38.10
2018-08-22T21:50:52.723Z,33.90
2018-08-22T21:53:21.487Z,35.93
2018-08-22T21:55:52.318Z,35.27
2018-08-22T21:58:21.080Z,34.73
2018-08-22T22:00:49.848Z,33.83
2018-08-22T22:03:24.286Z,37.07
2018-08-22T22:06:08.663Z,37.40
2018-08-22T22:08:43.183Z,38.60
2018-08-22T22:11:13.760Z,40.50
2018-08-22T22:13:43.162Z,38.00
2018-08-22T22:16:11.789Z,38.63
2018-08-22T22:18:40.461Z,39.50
2018-08-22T22:21:12.927Z,41.03
2018-08-22T22:23:48.065Z,39.47
2018-08-22T22:26:17.868Z,39.20
2018-08-22T22:28:47.722Z,39.63
2018-08-22T22:31:17.460Z,37.70
2018-08-22T22:33:52.224Z,39.00
2018-08-22T22:36:21.406Z,40.30
2018-08-22T22:38:50.048Z,41.17
2018-08-22T22:41:19.090Z,37.47
2018-08-22T22:43:47.961Z,37.80
2018-08-22T22:46:16.401Z,40.10
2018-08-22T22:48:45.310Z,44.23
2018-08-22T22:51:13.994Z,53.40
2018-08-22T22:53:43.160Z,49.27
2018-08-22T22:56:11.974Z,44.73
2018-08-22T22:58:40.861Z,45.80
2018-08-22T23:01:09.605Z,46.57
2018-08-22T23:03:39.951Z,46.80
2018-08-22T23:06:08.789Z,46.13
2018-08-22T23:08:37.452Z,45.37
2018-08-22T23:11:06.544Z,45.93
2018-08-22T23:13:35.355Z,46.30
2018-08-22T23:16:04.888Z,48.60
2018-08-22T23:18:35.473Z,50.80
2018-08-22T23:21:03.706Z,47.07
2018-08-22T23:23:34.515Z,50.97
2018-08-22T23:26:13.571Z,47.77
2018-08-22T23:28:43.723Z,46.13
2018-08-22T23:31:18.883Z,51.67
2018-08-22T23:33:47.851Z,45.93
2018-08-22T23:36:16.577Z,45.80
2018-08-22T23:38:45.191Z,46.30
2018-08-22T23:41:13.982Z,49.37
2018-08-22T23:43:50.447Z,48.13
2018-08-22T23:46:18.995Z,46.73
2018-08-22T23:48:55.415Z,44.90
2018-08-22T23:51:24.299Z,45.53
2018-08-22T23:53:56.965Z,48.90
2018-08-22T23:56:27.677Z,44.07
2018-08-22T23:58:58.591Z,47.50
